Time;durP1;ratioP1;P1;durP2;ratioP2;P2;SDS_P1;SDS_P2;PMS_P1;PMS_P2;Temp;Humidity;BMP_temperature;BMP_pressure;BME280_temperature;BME280_humidity;BME280_pressure;Samples;Min_cycle;Max_cycle;Signal;HPM_P1;HPM_P2
2021/10/13 00:01:03;;;;;;;1.20;1.00;;;22.50;54.90;;;;;;31752473;28;20040;-42
2021/10/13 00:16:05;;;;;;;0.50;0.50;;;22.40;55.90;;;;;;31750481;28;20048;-38
2021/10/13 00:31:08;;;;;;;1.15;0.35;;;22.40;56.20;;;;;;31747867;28;20074;-42
2021/10/13 00:46:10;;;;;;;0.40;0.40;;;22.40;56.70;;;;;;31727094;28;20067;-41
2021/10/13 01:01:20;;;;;;;0.40;0.40;;;22.30;56.80;;;;;;31746039;28;20118;-45
2021/10/13 01:16:46;;;;;;;0.28;0.20;;;22.30;56.30;;;;;;31744774;28;20122;-40
2021/10/13 01:32:02;;;;;;;0.17;0.17;;;22.20;56.70;;;;;;31743934;28;20060;-38
2021/10/13 01:47:06;;;;;;;0.10;0.10;;;22.50;57.00;;;;;;31744175;28;20036;-44
2021/10/13 02:02:09;;;;;;;0.10;0.10;;;23.10;56.40;;;;;;31752200;28;20047;-38
2021/10/13 02:17:12;;;;;;;0.20;0.20;;;23.00;56.90;;;;;;31767183;28;20059;-37
2021/10/13 02:32:15;;;;;;;0.25;0.10;;;22.90;57.20;;;;;;31764373;28;20060;-38
2021/10/13 02:47:40;;;;;;;0.10;0.10;;;22.80;57.30;;;;;;31764102;28;20065;-45
2021/10/13 03:03:02;;;;;;;0.55;0.10;;;22.70;56.90;;;;;;31762620;28;20101;-38
2021/10/13 03:18:04;;;;;;;0.20;0.20;;;22.70;56.70;;;;;;31739841;28;20087;-46
2021/10/13 03:33:06;;;;;;;1.75;0.10;;;22.60;57.00;;;;;;31739589;28;20112;-40
2021/10/13 03:48:08;;;;;;;0.17;0.17;;;22.50;57.10;;;;;;31752496;28;20071;-44
2021/10/13 04:03:11;;;;;;;3.80;3.25;;;22.40;56.80;;;;;;31737443;28;20040;-41
2021/10/13 04:18:13;;;;;;;5.68;2.28;;;22.20;56.00;;;;;;31752830;28;20051;-41
2021/10/13 04:33:15;;;;;;;7.55;2.45;;;22.50;56.30;;;;;;31751131;28;20052;-44
2021/10/13 04:48:19;;;;;;;8.43;3.42;;;23.00;55.80;;;;;;31732591;28;20067;-44
2021/10/13 05:03:21;;;;;;;8.15;2.95;;;22.90;56.00;;;;;;31749281;28;20115;-41
2021/10/13 05:18:23;;;;;;;4.65;2.70;;;22.70;56.50;;;;;;31740868;28;20136;-41
2021/10/13 05:33:25;;;;;;;5.90;1.90;;;22.50;56.80;;;;;;31771024;28;20127;-41
2021/10/13 05:48:27;;;;;;;4.53;1.88;;;22.40;56.90;;;;;;31769857;28;20092;-43
2021/10/13 06:29:00;;;;;;;49.25;35.75;;;22.30;56.50;;;;;;38876501;22;2157454;-49
2021/10/13 06:44:02;;;;;;;102.70;77.20;;;22.50;52.70;;;;;;38969573;23;20016;-49
2021/10/13 06:59:04;;;;;;;73.22;54.72;;;22.50;47.70;;;;;;38917092;23;20023;-50
2021/10/13 07:14:06;;;;;;;67.68;48.85;;;22.40;50.50;;;;;;39005331;22;20073;-50
2021/10/13 07:29:09;;;;;;;57.45;43.53;;;22.40;50.90;;;;;;38926629;23;20012;-49
2021/10/13 07:44:11;;;;;;;116.00;83.00;;;22.40;51.50;;;;;;38924093;23;20020;-49
2021/10/13 07:59:14;;;;;;;83.85;64.88;;;22.00;48.60;;;;;;38922600;23;20020;-50
2021/10/13 08:14:16;;;;;;;85.68;61.88;;;22.10;51.50;;;;;;38918773;23;20075;-51
2021/10/13 08:29:18;;;;;;;73.88;56.35;;;22.20;51.80;;;;;;38923452;23;20012;-47
2021/10/13 08:44:20;;;;;;;66.30;50.85;;;22.10;52.00;;;;;;38895325;23;20016;-48
2021/10/13 08:59:42;;;;;;;59.00;44.60;;;22.40;52.60;;;;;;38918964;23;20099;-48
2021/10/13 09:14:44;;;;;;;60.50;39.45;;;22.80;52.40;;;;;;38915314;23;20072;-46
2021/10/13 09:29:47;;;;;;;52.78;38.33;;;22.70;52.30;;;;;;38918650;23;20068;-47
2021/10/13 09:44:59;;;;;;;51.45;36.58;;;22.70;52.80;;;;;;38918795;23;20054;-47
2021/10/13 10:00:03;;;;;;;53.58;35.15;;;22.70;53.10;;;;;;38918115;23;20012;-51
2021/10/13 10:15:12;;;;;;;48.90;30.45;;;22.70;53.50;;;;;;38916094;23;20064;-47
2021/10/13 10:30:17;;;;;;;44.83;30.00;;;22.60;54.10;;;;;;38914257;23;20038;-49
2021/10/13 10:45:28;;;;;;;45.93;28.00;;;22.60;54.80;;;;;;38886449;23;20039;-45
2021/10/13 11:00:38;;;;;;;58.10;26.52;;;22.40;55.40;;;;;;38869761;23;20042;-47
2021/10/13 11:15:41;;;;;;;37.60;23.40;;;22.50;55.20;;;;;;38874884;23;20035;-43
2021/10/13 11:30:44;;;;;;;36.22;24.80;;;22.60;54.90;;;;;;38925413;23;20536;-54
2021/10/13 11:45:51;;;;;;;32.50;21.98;;;22.60;55.10;;;;;;38914848;23;20012;-47
2021/10/13 12:00:53;;;;;;;32.88;21.65;;;22.70;55.10;;;;;;38919168;23;20042;-40
2021/10/13 12:16:08;;;;;;;28.63;21.30;;;22.60;55.60;;;;;;38926981;23;20020;-44
2021/10/13 12:31:18;;;;;;;25.00;19.10;;;22.60;56.00;;;;;;38925130;23;20004;-39
2021/10/13 12:46:32;;;;;;;25.92;19.42;;;22.60;56.00;;;;;;38900324;23;20008;-45
2021/10/13 13:01:34;;;;;;;28.42;18.48;;;22.60;55.90;;;;;;38926875;23;20023;-50
2021/10/13 13:16:38;;;;;;;46.35;32.78;;;22.50;56.20;;;;;;38923914;23;20031;-46
2021/10/13 13:31:40;;;;;;;48.33;34.53;;;22.30;56.00;;;;;;38922772;23;20094;-48
2021/10/13 13:46:42;;;;;;;46.55;30.80;;;22.20;55.10;;;;;;38924849;23;20023;-47
2021/10/13 14:01:44;;;;;;;32.95;23.67;;;22.20;55.00;;;;;;38920969;23;20028;-47
2021/10/13 14:16:47;;;;;;;25.00;19.52;;;22.60;53.80;;;;;;38957943;23;20016;-39
2021/10/13 14:31:49;;;;;;;23.33;18.35;;;22.80;53.30;;;;;;38921965;23;20012;-48
2021/10/13 14:46:51;;;;;;;30.50;16.48;;;22.80;53.50;;;;;;38922938;23;20022;-37
2021/10/13 15:01:53;;;;;;;33.00;15.38;;;22.50;53.90;;;;;;38925145;23;20027;-38
2021/10/13 15:16:55;;;;;;;29.33;15.13;;;22.60;53.90;;;;;;38896580;23;20015;-42
2021/10/13 15:31:58;;;;;;;28.83;13.15;;;22.40;55.00;;;;;;38886071;23;20012;-39
2021/10/13 15:47:00;;;;;;;23.60;13.32;;;22.50;54.00;;;;;;38912020;23;20019;-47
2021/10/13 16:02:03;;;;;;;45.70;17.23;;;22.50;54.50;;;;;;38913398;23;20029;-37
2021/10/13 16:17:05;;;;;;;29.23;14.02;;;22.50;55.20;;;;;;38921959;23;20024;-50
2021/10/13 16:32:09;;;;;;;23.45;12.88;;;22.60;55.10;;;;;;38915097;23;20042;-41
2021/10/13 16:47:11;;;;;;;26.45;13.43;;;22.60;55.20;;;;;;38916530;23;20041;-50
2021/10/13 17:02:14;;;;;;;26.27;13.15;;;22.50;55.60;;;;;;38909779;23;20023;-49
2021/10/13 17:17:17;;;;;;;35.75;16.58;;;22.50;56.30;;;;;;38970063;23;20020;-40
2021/10/13 17:32:19;;;;;;;36.80;17.63;;;22.50;58.20;;;;;;38919572;23;20042;-40
2021/10/13 17:47:22;;;;;;;28.50;15.80;;;22.50;60.10;;;;;;38918682;23;20016;-42
2021/10/13 18:02:25;;;;;;;28.98;15.68;;;22.50;59.80;;;;;;38920256;23;20016;-41
2021/10/13 18:17:27;;;;;;;28.00;13.77;;;22.50;59.50;;;;;;38891191;23;20050;-42
2021/10/13 18:32:31;;;;;;;23.67;13.23;;;22.40;59.40;;;;;;38881809;23;20038;-53
2021/10/13 18:47:33;;;;;;;25.90;12.32;;;22.40;59.90;;;;;;38904135;23;20013;-49
2021/10/13 19:02:36;;;;;;;24.45;11.15;;;22.40;60.00;;;;;;38905745;23;20016;-42
2021/10/13 19:17:38;;;;;;;20.77;11.70;;;22.40;60.20;;;;;;38908722;23;20087;-40
2021/10/13 19:32:40;;;;;;;21.38;9.82;;;22.40;60.30;;;;;;38926670;23;20019;-39
2021/10/13 19:47:42;;;;;;;17.60;10.23;;;22.30;60.80;;;;;;38925529;23;20012;-48
2021/10/13 20:02:44;;;;;;;15.55;9.15;;;22.40;60.30;;;;;;38895808;23;20020;-37
2021/10/13 20:17:47;;;;;;;14.13;8.57;;;22.40;59.70;;;;;;38923678;23;20036;-42
2021/10/13 20:32:49;;;;;;;90.88;65.40;;;22.50;59.20;;;;;;38919779;23;20012;-39
2021/10/13 20:47:51;;;;;;;56.53;39.50;;;22.30;59.70;;;;;;38895846;23;20016;-38
2021/10/13 21:02:53;;;;;;;41.08;30.00;;;22.30;59.50;;;;;;38920044;23;20054;-50
2021/10/13 21:17:55;;;;;;;66.78;47.30;;;22.30;58.50;;;;;;38923340;23;20016;-48
2021/10/13 21:32:57;;;;;;;53.92;41.92;;;22.40;58.30;;;;;;38916105;23;20080;-48
2021/10/13 21:47:59;;;;;;;50.95;39.15;;;22.50;58.30;;;;;;38914777;23;20068;-49
2021/10/13 22:03:03;;;;;;;39.97;28.88;;;22.50;58.30;;;;;;38914287;23;20051;-40
2021/10/13 22:18:05;;;;;;;38.38;30.50;;;22.30;56.80;;;;;;38885969;23;20519;-36
2021/10/13 22:33:07;;;;;;;37.10;29.48;;;22.50;57.60;;;;;;38909915;23;20048;-37
2021/10/13 22:48:09;;;;;;;29.10;18.95;;;22.50;57.80;;;;;;38887056;23;20012;-40
2021/10/13 23:03:11;;;;;;;17.60;12.13;;;22.50;58.70;;;;;;38925560;23;20020;-49
2021/10/13 23:18:14;;;;;;;12.85;9.38;;;22.50;58.80;;;;;;38933139;23;20023;-46
2021/10/13 23:33:16;;;;;;;7.60;5.25;;;22.40;58.50;;;;;;38933211;23;20016;-47
2021/10/13 23:48:18;;;;;;;4.15;3.50;;;22.40;58.60;;;;;;38931496;23;20077;-49
